createdAt,value
2018-04-01T00:02:10.040Z,50.45
2018-04-01T00:04:36.590Z,54.53
2018-04-01T00:07:03.141Z,55.08
2018-04-01T00:09:29.665Z,59.00
2018-04-01T00:11:56.186Z,60.33
2018-04-01T00:14:22.711Z,53.47
2018-04-01T00:16:49.289Z,56.72
2018-04-01T00:19:15.818Z,56.37
2018-04-01T00:21:42.342Z,57.62
2018-04-01T00:24:08.879Z,55.75
2018-04-01T00:26:35.407Z,52.00
2018-04-01T00:29:01.976Z,55.08
2018-04-01T00:31:28.511Z,51.05
2018-04-01T00:33:55.071Z,57.55
2018-04-01T00:36:21.602Z,58.13
2018-04-01T00:38:48.122Z,52.88
2018-04-01T00:41:14.650Z,59.72
2018-04-01T00:43:41.184Z,59.70
2018-04-01T00:46:07.752Z,53.03
2018-04-01T00:48:34.278Z,51.08
2018-04-01T00:51:00.839Z,51.25
2018-04-01T00:53:27.370Z,55.03
2018-04-01T00:55:53.904Z,51.15
2018-04-01T00:58:20.431Z,48.25
2018-04-01T01:00:46.966Z,42.50
2018-04-01T01:03:13.532Z,43.30
2018-04-01T01:05:40.060Z,41.08
2018-04-01T01:08:06.615Z,43.47
2018-04-01T01:10:33.158Z,48.15
2018-04-01T01:12:59.731Z,49.42
2018-04-01T01:15:26.268Z,50.00
2018-04-01T01:17:52.793Z,53.95
2018-04-01T01:20:19.338Z,47.83
2018-04-01T01:22:45.872Z,49.55
2018-04-01T01:25:12.433Z,45.12
2018-04-01T01:27:38.964Z,51.30
2018-04-01T01:30:05.493Z,49.00
2018-04-01T01:32:32.014Z,46.47
2018-04-01T01:34:58.541Z,43.87
2018-04-01T01:37:25.091Z,47.00
2018-04-01T01:39:51.614Z,50.95
2018-04-01T01:42:18.174Z,44.67
2018-04-01T01:44:44.706Z,47.05
2018-04-01T01:47:11.229Z,46.67
2018-04-01T01:49:37.759Z,51.28
2018-04-01T01:52:04.296Z,48.80
2018-04-01T01:54:30.818Z,50.10
2018-04-01T01:56:57.351Z,46.75
2018-04-01T01:59:23.886Z,51.17
2018-04-01T02:01:50.460Z,52.03
2018-04-01T02:04:17.010Z,56.50
2018-04-01T02:06:43.532Z,59.95
2018-04-01T02:09:10.065Z,59.83
2018-04-01T02:11:36.590Z,58.35
2018-04-01T02:14:03.152Z,58.78
2018-04-01T02:16:29.680Z,60.58
2018-04-01T02:18:56.203Z,62.25
2018-04-01T02:21:23.178Z,63.67
2018-04-01T02:23:49.707Z,65.62
2018-04-01T02:26:16.235Z,61.55
2018-04-01T02:28:42.795Z,64.47
2018-04-01T02:31:09.379Z,65.37
2018-04-01T02:33:35.886Z,58.22
2018-04-01T02:36:02.469Z,58.13
2018-04-01T02:38:29.005Z,58.78
2018-04-01T02:40:55.539Z,59.88
2018-04-01T02:43:22.067Z,66.25
2018-04-01T02:45:48.593Z,62.28
2018-04-01T02:48:15.113Z,55.42
2018-04-01T02:50:41.684Z,60.55
2018-04-01T02:53:08.218Z,59.65
2018-04-01T02:55:34.747Z,62.60
2018-04-01T02:58:01.275Z,62.58
2018-04-01T03:00:27.817Z,59.00
2018-04-01T03:02:54.374Z,58.83
2018-04-01T03:05:20.892Z,55.03
2018-04-01T03:07:47.440Z,58.33
2018-04-01T03:10:13.979Z,56.33
2018-04-01T03:12:40.568Z,52.15
2018-04-01T03:15:07.130Z,60.53
2018-04-01T03:17:33.663Z,60.22
2018-04-01T03:20:00.225Z,62.70
2018-04-01T03:22:26.749Z,53.87
2018-04-01T03:24:53.295Z,55.10
2018-04-01T03:27:19.829Z,49.83
2018-04-01T03:29:46.352Z,54.13
2018-04-01T03:32:12.897Z,52.35
2018-04-01T03:34:39.420Z,50.15
2018-04-01T03:37:05.937Z,49.10
2018-04-01T03:39:32.464Z,50.95
2018-04-01T03:41:59.001Z,57.03
2018-04-01T03:44:25.553Z,51.75
2018-04-01T03:46:52.080Z,50.28
2018-04-01T03:49:18.602Z,49.72
2018-04-01T03:51:45.179Z,58.20
2018-04-01T03:54:11.725Z,49.10
2018-04-01T03:56:38.252Z,48.60
2018-04-01T03:59:04.807Z,47.40
2018-04-01T04:01:31.373Z,43.83
2018-04-01T04:03:57.958Z,44.70
2018-04-01T04:06:24.489Z,37.95
2018-04-01T04:08:51.016Z,33.42
2018-04-01T04:11:17.588Z,34.30
2018-04-01T04:13:44.154Z,40.47
2018-04-01T04:16:10.682Z,43.45
2018-04-01T04:18:37.209Z,36.10
2018-04-01T04:21:03.735Z,42.25
2018-04-01T04:23:30.260Z,43.58
2018-04-01T04:25:56.820Z,33.45
2018-04-01T04:28:23.349Z,31.27
2018-04-01T04:30:49.911Z,30.20
2018-04-01T04:33:16.440Z,32.42
2018-04-01T04:35:43.008Z,35.88
2018-04-01T04:38:32.075Z,31.05
2018-04-01T04:46:36.589Z,36.05
2018-04-01T04:52:14.237Z,32.85
2018-04-01T04:58:13.960Z,28.60
2018-04-01T05:00:40.487Z,30.92
2018-04-01T05:03:07.030Z,29.08
2018-04-01T05:05:33.577Z,30.17
2018-04-01T05:08:00.137Z,28.40
2018-04-01T05:10:26.662Z,29.65
2018-04-01T05:12:53.184Z,25.60
2018-04-01T05:15:19.706Z,28.92
2018-04-01T05:20:19.021Z,27.77
2018-04-01T05:22:45.551Z,28.48
2018-04-01T05:25:12.114Z,30.88
2018-04-01T05:27:38.640Z,30.08
2018-04-01T05:30:05.172Z,30.48
2018-04-01T05:32:31.718Z,29.80
2018-04-01T05:34:58.250Z,25.20
2018-04-01T05:37:24.779Z,31.27
2018-04-01T05:39:51.308Z,28.48
2018-04-01T05:42:17.882Z,23.83
2018-04-01T05:44:44.409Z,27.00
2018-04-01T05:47:10.929Z,28.55
2018-04-01T05:49:37.466Z,26.37
2018-04-01T05:52:03.986Z,24.25
2018-04-01T05:54:30.513Z,27.60
2018-04-01T05:56:57.034Z,26.52
2018-04-01T05:59:23.563Z,27.98
2018-04-01T06:01:50.101Z,22.50
2018-04-01T06:04:16.630Z,27.42
2018-04-01T06:06:43.158Z,28.77
2018-04-01T06:09:09.710Z,21.55
2018-04-01T06:11:36.230Z,22.40
2018-04-01T06:14:02.782Z,25.37
2018-04-01T06:16:29.355Z,23.02
2018-04-01T06:18:55.924Z,24.65
2018-04-01T06:21:22.478Z,19.58
2018-04-01T06:23:49.030Z,22.58
2018-04-01T06:26:15.585Z,21.77
2018-04-01T06:28:42.163Z,22.55
2018-04-01T06:31:08.697Z,22.50
2018-04-01T06:33:35.223Z,22.60
2018-04-01T06:36:01.785Z,19.80
2018-04-01T06:38:28.314Z,19.90
2018-04-01T06:40:54.871Z,25.25
2018-04-01T06:43:21.427Z,23.12
2018-04-01T06:45:47.971Z,20.55
2018-04-01T06:48:14.543Z,19.95
2018-04-01T06:50:41.107Z,19.48
2018-04-01T06:53:07.668Z,20.95
2018-04-01T06:55:34.229Z,20.58
2018-04-01T06:58:00.787Z,23.55
2018-04-01T07:00:27.317Z,24.02
2018-04-01T07:02:53.903Z,23.62
2018-04-01T07:05:20.498Z,20.33
2018-04-01T07:07:47.090Z,20.08
2018-04-01T07:10:13.688Z,21.10
2018-04-01T07:12:40.246Z,21.85
2018-04-01T07:15:06.851Z,17.62
2018-04-01T07:17:33.420Z,18.92
2018-04-01T07:19:59.983Z,18.58
2018-04-01T07:22:26.510Z,19.35
2018-04-01T07:24:53.078Z,21.52
2018-04-01T07:27:19.604Z,20.83
2018-04-01T07:29:46.158Z,18.15
2018-04-01T07:32:12.771Z,18.98
2018-04-01T07:34:39.307Z,19.80
2018-04-01T07:37:05.875Z,18.40
2018-04-01T07:39:32.420Z,18.67
2018-04-01T07:41:58.975Z,21.67
2018-04-01T07:44:25.502Z,19.25
2018-04-01T07:46:52.040Z,19.02
2018-04-01T07:49:18.572Z,21.37
2018-04-01T07:51:45.103Z,19.27
2018-04-01T07:54:11.676Z,21.08
2018-04-01T07:56:38.206Z,22.75
2018-04-01T07:59:04.844Z,21.02
2018-04-01T08:01:31.382Z,20.50
2018-04-01T08:03:57.947Z,17.50
2018-04-01T08:06:24.472Z,20.27
2018-04-01T08:08:51.007Z,22.73
2018-04-01T08:11:17.530Z,21.45
2018-04-01T08:13:44.066Z,23.98
2018-04-01T08:16:10.622Z,20.15
2018-04-01T08:18:37.192Z,20.80
2018-04-01T08:21:03.771Z,19.33
2018-04-01T08:23:30.366Z,19.58
2018-04-01T08:25:57.053Z,23.67
2018-04-01T08:28:24.027Z,20.77
2018-04-01T08:30:51.187Z,19.37
2018-04-01T08:33:19.305Z,17.00
2018-04-01T08:35:46.478Z,19.15
2018-04-01T08:38:13.019Z,19.65
2018-04-01T08:40:39.775Z,21.48
2018-04-01T08:43:07.460Z,20.12
2018-04-01T08:45:35.324Z,20.95
2018-04-01T08:48:01.854Z,19.17
2018-04-01T08:50:29.929Z,16.92
2018-04-01T08:52:56.749Z,20.25
2018-04-01T08:55:25.995Z,20.50
2018-04-01T08:57:53.223Z,23.30
2018-04-01T09:00:19.924Z,17.60
2018-04-01T09:02:47.365Z,18.73
2018-04-01T09:05:13.982Z,16.12
2018-04-01T09:07:41.739Z,18.85
2018-04-01T09:10:10.199Z,18.08
2018-04-01T09:12:37.046Z,16.80
2018-04-01T09:15:03.590Z,17.15
2018-04-01T09:17:30.120Z,15.88
2018-04-01T09:19:56.651Z,18.80
2018-04-01T09:22:23.215Z,17.80
2018-04-01T09:24:49.742Z,20.80
2018-04-01T09:27:16.314Z,19.37
2018-04-01T09:29:42.835Z,18.80
2018-04-01T09:32:09.382Z,19.30
2018-04-01T09:34:35.919Z,18.62
2018-04-01T09:37:02.525Z,18.48
2018-04-01T09:39:29.061Z,16.17
2018-04-01T09:41:55.612Z,15.68
2018-04-01T09:44:22.157Z,18.02
2018-04-01T09:46:48.674Z,19.65
2018-04-01T09:49:15.202Z,16.62
2018-04-01T09:51:41.765Z,14.50
2018-04-01T09:54:08.322Z,15.80
2018-04-01T09:56:34.857Z,11.45
2018-04-01T09:59:01.392Z,13.10
2018-04-01T10:01:28.190Z,12.15
2018-04-01T10:03:54.951Z,12.07
2018-04-01T10:06:21.751Z,14.98
2018-04-01T10:08:48.566Z,12.25
2018-04-01T10:11:15.349Z,14.77
2018-04-01T10:13:42.148Z,14.10
2018-04-01T10:16:08.930Z,16.10
2018-04-01T10:18:35.697Z,15.57
2018-04-01T10:21:02.462Z,15.38
2018-04-01T10:23:29.225Z,14.50
2018-04-01T10:25:55.989Z,16.55
2018-04-01T10:28:22.765Z,16.37
2018-04-01T10:30:49.527Z,15.60
2018-04-01T10:33:16.289Z,16.10
2018-04-01T10:35:43.065Z,15.05
2018-04-01T10:38:09.858Z,14.82
2018-04-01T10:40:36.617Z,17.33
2018-04-01T10:43:03.380Z,17.20
2018-04-01T10:45:30.160Z,16.52
2018-04-01T10:47:56.933Z,15.43
2018-04-01T10:50:23.739Z,15.55
2018-04-01T10:52:50.553Z,15.02
2018-04-01T10:55:17.072Z,14.70
2018-04-01T10:57:43.691Z,14.95
2018-04-01T11:00:10.251Z,14.95
2018-04-01T11:02:36.787Z,15.88
2018-04-01T11:05:03.341Z,16.73
2018-04-01T11:07:29.897Z,16.55
2018-04-01T11:09:56.416Z,17.75
2018-04-01T11:12:22.992Z,19.42
2018-04-01T11:14:49.521Z,17.62
2018-04-01T11:17:16.718Z,18.75
2018-04-01T11:19:43.251Z,16.60
2018-04-01T11:22:09.792Z,18.17
2018-04-01T11:24:36.354Z,16.20
2018-04-01T11:27:02.907Z,16.50
2018-04-01T11:29:29.473Z,14.82
2018-04-01T11:31:56.086Z,15.40
2018-04-01T11:34:22.823Z,15.77
2018-04-01T11:36:49.341Z,15.40
2018-04-01T11:39:15.887Z,17.45
2018-04-01T11:41:42.446Z,15.63
2018-04-01T11:44:08.975Z,16.42
2018-04-01T11:46:35.551Z,15.95
2018-04-01T11:49:02.090Z,17.37
2018-04-01T11:51:28.847Z,15.63
2018-04-01T11:53:55.435Z,16.60
2018-04-01T11:56:22.010Z,16.27
2018-04-01T11:58:48.690Z,17.50
2018-04-01T12:01:15.554Z,16.80
2018-04-01T12:03:42.202Z,17.67
2018-04-01T12:06:08.782Z,17.20
2018-04-01T12:08:35.325Z,16.67
2018-04-01T12:11:02.090Z,17.20
2018-04-01T12:13:28.729Z,16.50
2018-04-01T12:15:55.297Z,17.35
2018-04-01T12:18:21.966Z,18.50
2018-04-01T12:20:48.582Z,16.48
2018-04-01T12:23:15.133Z,20.08
2018-04-01T12:25:41.660Z,22.08
2018-04-01T12:28:08.196Z,22.77
2018-04-01T12:30:34.773Z,20.65
2018-04-01T12:33:01.296Z,24.45
2018-04-01T12:35:27.870Z,24.80
2018-04-01T12:37:54.417Z,23.42
2018-04-01T12:40:20.996Z,23.70
2018-04-01T12:42:47.536Z,28.92
2018-04-01T12:45:14.074Z,30.05
2018-04-01T12:47:40.688Z,26.67
2018-04-01T12:50:07.394Z,27.13
2018-04-01T12:52:33.967Z,30.92
2018-04-01T12:55:00.664Z,29.77
2018-04-01T12:57:27.215Z,28.75
2018-04-01T12:59:53.799Z,29.75
2018-04-01T13:02:20.358Z,29.83
2018-04-01T13:04:46.880Z,32.03
2018-04-01T13:07:13.459Z,32.55
2018-04-01T13:09:39.999Z,31.70
2018-04-01T13:12:06.533Z,27.70
2018-04-01T13:14:33.079Z,26.05
2018-04-01T13:16:59.598Z,25.48
2018-04-01T13:19:26.131Z,28.33
2018-04-01T13:21:52.664Z,24.70
2018-04-01T13:24:19.222Z,24.15
2018-04-01T13:26:45.746Z,25.25
2018-04-01T13:29:12.331Z,25.85
2018-04-01T13:31:38.896Z,24.00
2018-04-01T13:34:05.463Z,23.35
2018-04-01T13:36:32.133Z,23.02
2018-04-01T13:38:58.730Z,23.30
2018-04-01T13:41:25.251Z,23.10
2018-04-01T13:43:51.783Z,22.92
2018-04-01T13:46:18.438Z,22.92
2018-04-01T13:48:44.958Z,22.75
2018-04-01T13:51:11.478Z,23.35
2018-04-01T13:53:38.003Z,18.35
2018-04-01T13:56:04.555Z,17.60
2018-04-01T13:58:31.079Z,18.70
2018-04-01T14:00:57.607Z,22.45
2018-04-01T14:03:24.179Z,23.35
2018-04-01T14:05:50.747Z,16.55
2018-04-01T14:08:17.298Z,41.17
2018-04-01T14:10:43.832Z,16.70
2018-04-01T14:13:10.362Z,32.20
2018-04-01T14:15:36.892Z,32.50
2018-04-01T14:18:03.438Z,17.67
2018-04-01T14:20:30.004Z,17.12
2018-04-01T14:22:56.569Z,16.27
2018-04-01T14:25:23.139Z,17.33
2018-04-01T14:27:49.683Z,16.12
2018-04-01T14:30:16.234Z,17.02
2018-04-01T14:32:42.819Z,17.80
2018-04-01T14:35:09.366Z,18.05
2018-04-01T14:37:35.941Z,16.40
2018-04-01T14:40:02.482Z,16.27
2018-04-01T14:42:29.015Z,17.12
2018-04-01T14:44:55.566Z,17.60
2018-04-01T14:47:22.096Z,16.52
2018-04-01T14:49:48.621Z,16.58
2018-04-01T14:52:15.161Z,17.08
2018-04-01T14:54:41.783Z,17.10
2018-04-01T14:57:08.328Z,16.92
2018-04-01T14:59:34.854Z,18.15
2018-04-01T15:02:01.384Z,15.65
2018-04-01T15:04:27.918Z,16.70
2018-04-01T15:06:54.482Z,17.90
2018-04-01T15:09:21.006Z,18.52
2018-04-01T15:11:47.557Z,17.80
2018-04-01T15:14:14.159Z,18.20
2018-04-01T15:16:40.796Z,19.92
2018-04-01T15:19:07.338Z,20.27
2018-04-01T15:21:33.858Z,20.85
2018-04-01T15:24:00.416Z,18.58
2018-04-01T15:26:26.957Z,19.33
2018-04-01T15:28:53.486Z,17.62
2018-04-01T15:31:20.013Z,18.15
2018-04-01T15:33:46.602Z,21.92
2018-04-01T15:36:13.128Z,19.30
2018-04-01T15:38:39.653Z,21.35
2018-04-01T15:41:06.204Z,22.17
2018-04-01T15:43:32.756Z,22.73
2018-04-01T15:45:59.312Z,22.48
2018-04-01T15:48:25.833Z,22.40
2018-04-01T15:50:52.413Z,23.92
2018-04-01T15:53:18.948Z,20.98
2018-04-01T15:55:45.482Z,23.20
2018-04-01T15:58:12.040Z,20.95
2018-04-01T16:00:38.579Z,23.40
2018-04-01T16:03:05.105Z,22.10
2018-04-01T16:05:31.628Z,21.52
2018-04-01T16:07:58.199Z,20.60
2018-04-01T16:10:24.730Z,21.92
2018-04-01T16:12:51.292Z,21.83
2018-04-01T16:15:17.826Z,22.23
2018-04-01T16:17:44.347Z,20.08
2018-04-01T16:20:10.876Z,25.42
2018-04-01T16:22:37.431Z,22.02
2018-04-01T16:25:04.014Z,23.87
2018-04-01T16:27:30.542Z,21.15
2018-04-01T16:29:57.091Z,23.10
2018-04-01T16:32:23.639Z,22.10
2018-04-01T16:34:50.207Z,21.27
2018-04-01T16:37:16.743Z,20.40
2018-04-01T16:39:43.290Z,22.50
2018-04-01T16:42:09.850Z,22.05
2018-04-01T16:44:36.374Z,21.33
2018-04-01T16:47:02.909Z,20.85
2018-04-01T16:49:29.434Z,19.45
2018-04-01T16:51:55.988Z,20.52
2018-04-01T16:54:22.514Z,22.90
2018-04-01T16:56:49.036Z,20.92
2018-04-01T16:59:15.592Z,22.55
2018-04-01T17:01:42.109Z,22.25
2018-04-01T17:04:08.981Z,21.62
2018-04-01T17:06:35.539Z,21.95
2018-04-01T17:09:02.111Z,21.62
2018-04-01T17:11:28.655Z,22.75
2018-04-01T17:13:55.190Z,21.42
2018-04-01T17:16:21.730Z,20.90
2018-04-01T17:18:48.266Z,16.83
2018-04-01T17:21:14.795Z,16.08
2018-04-01T17:23:41.354Z,15.30
2018-04-01T17:26:07.892Z,13.62
2018-04-01T17:28:34.433Z,12.35
2018-04-01T17:31:00.958Z,11.82
2018-04-01T17:33:27.476Z,12.45
2018-04-01T17:35:54.009Z,12.57
2018-04-01T17:38:20.575Z,12.57
2018-04-01T17:40:47.106Z,16.17
2018-04-01T17:43:13.726Z,12.95
2018-04-01T17:45:40.250Z,12.18
2018-04-01T17:48:06.781Z,10.20
2018-04-01T17:50:33.360Z,14.65
2018-04-01T17:52:59.892Z,11.18
2018-04-01T17:55:26.432Z,11.50
2018-04-01T17:57:52.966Z,10.43
2018-04-01T18:00:19.508Z,11.68
2018-04-01T18:02:46.079Z,11.50
2018-04-01T18:05:12.606Z,12.18
2018-04-01T18:07:39.189Z,10.65
2018-04-01T18:10:05.789Z,11.43
2018-04-01T18:12:32.316Z,10.68
2018-04-01T18:14:58.874Z,10.90
2018-04-01T18:17:26.841Z,11.40
2018-04-01T18:19:53.689Z,10.48
2018-04-01T18:22:20.251Z,9.95
2018-04-01T18:24:46.810Z,12.27
2018-04-01T18:27:13.347Z,10.80
2018-04-01T18:29:39.953Z,11.25
2018-04-01T18:32:06.486Z,10.38
2018-04-01T18:34:33.013Z,10.48
2018-04-01T18:36:59.607Z,12.35
2018-04-01T18:39:26.134Z,10.80
2018-04-01T18:41:52.709Z,11.05
2018-04-01T18:44:19.256Z,11.07
2018-04-01T18:46:45.824Z,14.32
2018-04-01T18:49:12.386Z,17.33
2018-04-01T18:51:38.946Z,12.05
2018-04-01T18:54:05.472Z,11.95
2018-04-01T18:56:32.054Z,21.20
2018-04-01T18:58:58.673Z,14.80
2018-04-01T19:01:25.211Z,11.55
2018-04-01T19:03:51.849Z,12.25
2018-04-01T19:06:18.374Z,13.05
2018-04-01T19:08:44.934Z,14.52
2018-04-01T19:11:11.465Z,18.37
2018-04-01T19:13:38.035Z,13.93
2018-04-01T19:16:04.806Z,14.15
2018-04-01T19:18:31.590Z,14.80
2018-04-01T19:20:58.351Z,17.17
2018-04-01T19:23:25.110Z,14.52
2018-04-01T19:25:51.892Z,14.38
2018-04-01T19:28:18.660Z,15.43
2018-04-01T19:30:45.550Z,14.10
2018-04-01T19:33:12.310Z,15.65
2018-04-01T19:35:39.151Z,14.50
2018-04-01T19:38:05.938Z,16.20
2018-04-01T19:40:32.724Z,17.87
2018-04-01T19:45:32.713Z,21.42
2018-04-01T19:47:59.555Z,21.02
2018-04-01T19:50:26.310Z,20.27
2018-04-01T19:52:53.120Z,20.00
2018-04-01T19:55:19.888Z,16.92
2018-04-01T19:57:46.681Z,20.20
2018-04-01T20:00:13.445Z,20.77
2018-04-01T20:02:40.254Z,17.73
2018-04-01T20:05:07.011Z,18.27
2018-04-01T20:07:33.780Z,17.65
2018-04-01T20:10:00.539Z,20.23
2018-04-01T20:12:27.312Z,19.37
2018-04-01T20:14:54.077Z,18.25
2018-04-01T20:17:20.846Z,21.62
2018-04-01T20:19:47.630Z,21.58
2018-04-01T20:22:14.397Z,21.42
2018-04-01T20:24:41.268Z,21.23
2018-04-01T20:27:08.139Z,25.90
2018-04-01T20:29:34.954Z,26.65
2018-04-01T20:32:01.710Z,25.95
2018-04-01T20:34:28.568Z,25.62
2018-04-01T20:36:55.336Z,29.08
2018-04-01T20:39:22.101Z,23.15
2018-04-01T20:41:48.862Z,26.33
2018-04-01T20:44:15.713Z,31.00
2018-04-01T20:46:42.507Z,27.33
2018-04-01T20:49:09.278Z,29.12
2018-04-01T20:51:36.082Z,35.92
2018-04-01T20:54:04.132Z,35.75
2018-04-01T20:56:32.193Z,32.40
2018-04-01T20:59:00.354Z,35.88
2018-04-01T21:01:27.673Z,34.50
2018-04-01T21:03:56.275Z,31.10
2018-04-01T21:06:25.330Z,32.97
2018-04-01T21:08:53.804Z,40.08
2018-04-01T21:11:21.741Z,35.05
2018-04-01T21:13:48.804Z,37.72
2018-04-01T21:16:15.570Z,36.00
2018-04-01T21:18:42.374Z,37.08
2018-04-01T21:21:09.161Z,36.22
2018-04-01T21:23:35.931Z,33.63
2018-04-01T21:26:02.708Z,39.20
2018-04-01T21:28:29.483Z,40.60
2018-04-01T21:30:56.247Z,41.70
2018-04-01T21:33:23.010Z,38.65
2018-04-01T21:35:49.854Z,38.88
2018-04-01T21:38:16.603Z,37.03
2018-04-01T21:40:43.372Z,39.63
2018-04-01T21:43:10.240Z,43.97
2018-04-01T21:45:37.006Z,39.83
2018-04-01T21:48:03.788Z,43.40
2018-04-01T21:50:30.542Z,50.58
2018-04-01T21:52:57.307Z,45.25
2018-04-01T21:55:24.086Z,54.40
2018-04-01T21:57:50.891Z,49.42
2018-04-01T22:00:17.654Z,43.75
2018-04-01T22:02:44.446Z,40.95
2018-04-01T22:05:11.223Z,48.00
2018-04-01T22:07:37.980Z,45.95
2018-04-01T22:10:04.773Z,48.72
2018-04-01T22:12:32.324Z,50.30
2018-04-01T22:14:59.184Z,46.83
2018-04-01T22:17:25.947Z,50.65
2018-04-01T22:19:53.059Z,44.20
2018-04-01T22:22:19.854Z,46.88
2018-04-01T22:24:46.748Z,44.08
2018-04-01T22:27:13.520Z,47.45
2018-04-01T22:29:40.310Z,48.30
2018-04-01T22:32:07.128Z,54.22
2018-04-01T22:34:35.552Z,49.22
2018-04-01T22:37:13.690Z,47.80
2018-04-01T22:39:40.547Z,48.63
2018-04-01T22:42:07.293Z,50.80
2018-04-01T22:44:34.098Z,51.22
2018-04-01T22:47:00.926Z,48.92
2018-04-01T22:49:27.690Z,50.45
2018-04-01T22:51:54.478Z,51.70
2018-04-01T22:54:21.262Z,47.65
2018-04-01T22:56:48.035Z,48.30
2018-04-01T22:59:14.833Z,45.85
2018-04-01T23:01:41.581Z,47.75
2018-04-01T23:04:09.233Z,37.05
2018-04-01T23:06:36.005Z,41.95
2018-04-01T23:09:02.810Z,46.75
2018-04-01T23:11:29.693Z,43.72
2018-04-01T23:13:56.458Z,43.35
2018-04-01T23:16:23.250Z,50.20
2018-04-01T23:18:50.814Z,42.33
2018-04-01T23:21:17.819Z,47.03
2018-04-01T23:23:44.644Z,46.15
2018-04-01T23:26:11.485Z,49.08
2018-04-01T23:28:38.398Z,49.50
2018-04-01T23:31:05.240Z,47.97
2018-04-01T23:33:32.054Z,45.92
2018-04-01T23:36:00.577Z,58.65
2018-04-01T23:38:28.219Z,49.53
2018-04-01T23:40:55.016Z,43.80
2018-04-01T23:43:21.809Z,46.10
2018-04-01T23:45:49.847Z,42.92
2018-04-01T23:48:17.956Z,44.85
2018-04-01T23:50:44.986Z,48.10
2018-04-01T23:53:13.956Z,47.47
2018-04-01T23:55:40.767Z,45.30
2018-04-01T23:58:07.525Z,50.40
